Etusivu
METAR-TAF:

METAR-TAF

Lentoasemat :

Kuressaaren lentoasema

Kuressaari, Viro

Leveyspiiri: 58-13-48N, Pituuspiiri: 022-30-34E, korkeus merenpinnasta: 4 m

Tämänhetkinen sää

Tämä raportti tehtiin 18 minuuttia sitten, kello 04.50 UTC
Tuuli 13 kn lännestä/lounaasta puuskistuen 27 kn:hen, vaihdellen lounaan ja lännen välillä
Lämpötila 12°C
Kosteus 76%
Ilmanpaine 1017 hPa
Näkyvyys 10 km tai enemmän
Hajanaisia pilviä 2300 ft:n korkeudessa
Hajonneita pilviä 2600 ft:n korkeudessa

METAR: EEKE 260450Z 25013G27KT 220V280 9999 SCT023 BKN026 12/08 Q1017

Aika: 08:08 (05:08 UTC)

Sääennuste

Tämä raportti tehtiin 15 tuntia ja 8 minuuttia sitten, kello 14.00 UTC
Ennuste voimassa 25. päivästä klo 15 UTC - 25. päivään klo 21 UTC
Tuuli 15 kn lännestä/luoteesta
Näkyvyys 10 km tai enemmän
Hajanaisia pilviä 3000 ft:n korkeudessa

TAF: EEKE 251400Z 2515/2521 30015KT 9999 SCT030

Säähavainnot ja -ennusteet yli 4000 lentoasemalta (METAR- ja TAF-raportit).

Käytössä olevat sääasemat on merkitty karttaan keltaisilla ja punaisilla pisteillä.

Aseta hiiri pisteen päälle nähdäksesi sääaseman nimen.

Klikkaa sitten nähdäksesi säähavainnot ja -ennusteet.

Kartan vaihtaminen: klikkaa mustalla rastilla varustettuja vihreitä pisteitä, niin voit zoomata sisään; viivalla varustettua vihreää pistettä, niin voit zoomata ulos tai vihreitä nuolia, niin pääset viereisille kartoille.


METAR-TAF: